sensor_id;sensor_type;location;lat;lon;timestamp;pressure;altitude;pressure_sealevel;temperature;humidity
65394;BME280;52002;49.760;6.512;2022-11-18T00:02:14;98050.06;;;20.03;53.54
65394;BME280;52002;49.760;6.512;2022-11-18T00:04:40;98046.00;;;20.03;53.57
65394;BME280;52002;49.760;6.512;2022-11-18T00:07:06;98056.83;;;20.03;53.58
65394;BME280;52002;49.760;6.512;2022-11-18T00:09:32;98059.83;;;20.04;53.59
65394;BME280;52002;49.760;6.512;2022-11-18T00:11:57;98068.24;;;20.05;53.63
65394;BME280;52002;49.760;6.512;2022-11-18T00:14:42;98069.59;;;20.05;53.65
65394;BME280;52002;49.760;6.512;2022-11-18T00:17:07;98069.59;;;20.05;53.67
65394;BME280;52002;49.760;6.512;2022-11-18T00:19:36;98066.89;;;20.05;53.70
65394;BME280;52002;49.760;6.512;2022-11-18T00:22:04;98072.59;;;20.06;53.72
65394;BME280;52002;49.760;6.512;2022-11-18T00:24:31;98082.36;;;20.07;53.71
65394;BME280;52002;49.760;6.512;2022-11-18T00:26:58;98085.07;;;20.07;53.74
65394;BME280;52002;49.760;6.512;2022-11-18T00:29:25;98083.17;;;20.08;53.77
65394;BME280;52002;49.760;6.512;2022-11-18T00:31:53;98077.23;;;20.08;53.77
65394;BME280;52002;49.760;6.512;2022-11-18T00:34:20;98080.20;;;20.07;53.78
65394;BME280;52002;49.760;6.512;2022-11-18T00:36:47;98080.72;;;20.06;53.80
65394;BME280;52002;49.760;6.512;2022-11-18T00:39:15;98080.46;;;20.08;53.83
65394;BME280;52002;49.760;6.512;2022-11-18T00:41:43;98085.07;;;20.07;53.84
65394;BME280;52002;49.760;6.512;2022-11-18T00:44:28;98088.84;;;20.06;53.85
65394;BME280;52002;49.760;6.512;2022-11-18T00:46:54;98090.20;;;20.06;53.89
65394;BME280;52002;49.760;6.512;2022-11-18T00:49:20;98091.55;;;20.06;53.91
65394;BME280;52002;49.760;6.512;2022-11-18T00:51:46;98090.75;;;20.06;53.92
65394;BME280;52002;49.760;6.512;2022-11-18T00:54:12;98095.09;;;20.07;53.92
65394;BME280;52002;49.760;6.512;2022-11-18T00:56:38;98097.26;;;20.07;53.96
65394;BME280;52002;49.760;6.512;2022-11-18T00:59:04;98098.33;;;20.06;54.00
65394;BME280;52002;49.760;6.512;2022-11-18T01:01:30;98094.55;;;20.07;53.98
65394;BME280;52002;49.760;6.512;2022-11-18T01:03:56;98102.13;;;20.08;53.98
65394;BME280;52002;49.760;6.512;2022-11-18T01:06:22;98101.91;;;20.09;53.98
65394;BME280;52002;49.760;6.512;2022-11-18T01:08:49;98104.61;;;20.09;53.98
65394;BME280;52002;49.760;6.512;2022-11-18T01:11:15;98104.91;;;20.10;53.99
65394;BME280;52002;49.760;6.512;2022-11-18T01:14:00;98101.13;;;20.11;54.00
65394;BME280;52002;49.760;6.512;2022-11-18T01:16:26;98098.94;;;20.11;54.00
65394;BME280;52002;49.760;6.512;2022-11-18T01:18:54;98102.48;;;20.11;54.03
65394;BME280;52002;49.760;6.512;2022-11-18T01:21:20;98104.91;;;20.10;54.05
65394;BME280;52002;49.760;6.512;2022-11-18T01:23:47;98105.19;;;20.11;54.03
65394;BME280;52002;49.760;6.512;2022-11-18T01:26:16;98116.31;;;20.12;54.02
65394;BME280;52002;49.760;6.512;2022-11-18T01:28:43;98117.89;;;20.11;54.04
65394;BME280;52002;49.760;6.512;2022-11-18T01:31:12;98116.02;;;20.11;54.08
65394;BME280;52002;49.760;6.512;2022-11-18T01:33:39;98124.16;;;20.11;54.07
65394;BME280;52002;49.760;6.512;2022-11-18T01:36:15;98123.57;;;20.09;54.09
65394;BME280;52002;49.760;6.512;2022-11-18T01:38:45;98132.77;;;20.08;54.10
65394;BME280;52002;49.760;6.512;2022-11-18T01:41:12;98136.56;;;20.10;54.11
65394;BME280;52002;49.760;6.512;2022-11-18T01:43:57;98135.21;;;20.10;54.12
65394;BME280;52002;49.760;6.512;2022-11-18T01:46:27;98138.47;;;20.09;54.15
65394;BME280;52002;49.760;6.512;2022-11-18T01:49:10;98140.11;;;20.10;54.15
65394;BME280;52002;49.760;6.512;2022-11-18T01:51:45;98146.05;;;20.10;54.15
65394;BME280;52002;49.760;6.512;2022-11-18T01:54:13;98147.95;;;20.09;54.15
65394;BME280;52002;49.760;6.512;2022-11-18T01:56:45;98147.95;;;20.09;54.19
65394;BME280;52002;49.760;6.512;2022-11-18T01:59:19;98148.76;;;20.10;54.17
65394;BME280;52002;49.760;6.512;2022-11-18T02:01:47;98153.66;;;20.10;54.19
65394;BME280;52002;49.760;6.512;2022-11-18T02:04:13;98149.34;;;20.12;54.21
65394;BME280;52002;49.760;6.512;2022-11-18T02:06:41;98158.53;;;20.11;54.22
65394;BME280;52002;49.760;6.512;2022-11-18T02:09:08;98160.72;;;20.11;54.25
65394;BME280;52002;49.760;6.512;2022-11-18T02:11:34;98170.20;;;20.11;54.22
65394;BME280;52002;49.760;6.512;2022-11-18T02:14:27;98176.68;;;20.10;54.28
65394;BME280;52002;49.760;6.512;2022-11-18T02:17:29;98179.39;;;20.10;54.26
65394;BME280;52002;49.760;6.512;2022-11-18T02:20:18;98181.03;;;20.11;54.29
65394;BME280;52002;49.760;6.512;2022-11-18T02:31:46;98180.97;;;20.09;54.34
65394;BME280;52002;49.760;6.512;2022-11-18T02:40:31;98190.70;;;20.07;54.40
65394;BME280;52002;49.760;6.512;2022-11-18T02:43:04;98185.00;;;20.06;54.44
65394;BME280;52002;49.760;6.512;2022-11-18T02:45:33;98186.06;;;20.05;54.44
65394;BME280;52002;49.760;6.512;2022-11-18T02:48:04;98189.06;;;20.06;54.42
65394;BME280;52002;49.760;6.512;2022-11-18T02:50:33;98196.93;;;20.08;54.42
65394;BME280;52002;49.760;6.512;2022-11-18T02:53:03;98192.35;;;20.08;54.43
65394;BME280;52002;49.760;6.512;2022-11-18T02:55:32;98197.22;;;20.09;54.43
65394;BME280;52002;49.760;6.512;2022-11-18T02:58:01;98196.45;;;20.11;54.39
65394;BME280;52002;49.760;6.512;2022-11-18T03:00:28;98190.52;;;20.11;54.41
65394;BME280;52002;49.760;6.512;2022-11-18T03:02:55;98200.00;;;20.11;54.42
65394;BME280;52002;49.760;6.512;2022-11-18T03:05:42;98205.16;;;20.13;54.38
65394;BME280;52002;49.760;6.512;2022-11-18T03:08:17;98205.41;;;20.11;54.40
65394;BME280;52002;49.760;6.512;2022-11-18T03:10:48;98209.77;;;20.12;54.39
65394;BME280;52002;49.760;6.512;2022-11-18T03:13:19;98214.64;;;20.13;54.39
65394;BME280;52002;49.760;6.512;2022-11-18T03:15:59;98217.35;;;20.13;54.40
65394;BME280;52002;49.760;6.512;2022-11-18T03:18:43;98218.96;;;20.11;54.43
65394;BME280;52002;49.760;6.512;2022-11-18T03:21:32;98221.67;;;20.11;54.44
65394;BME280;52002;49.760;6.512;2022-11-18T03:26:47;98228.95;;;20.11;54.46
65394;BME280;52002;49.760;6.512;2022-11-18T03:29:17;98228.15;;;20.10;54.47
65394;BME280;52002;49.760;6.512;2022-11-18T03:31:58;98233.56;;;20.10;54.50
65394;BME280;52002;49.760;6.512;2022-11-18T03:34:29;98245.47;;;20.09;54.51
65394;BME280;52002;49.760;6.512;2022-11-18T03:37:16;98245.69;;;20.08;54.51
65394;BME280;52002;49.760;6.512;2022-11-18T03:39:50;98249.82;;;20.10;54.52
65394;BME280;52002;49.760;6.512;2022-11-18T03:42:27;98247.11;;;20.10;54.50
65394;BME280;52002;49.760;6.512;2022-11-18T03:45:05;98252.53;;;20.10;54.49
65394;BME280;52002;49.760;6.512;2022-11-18T03:47:37;98255.53;;;20.11;54.47
65394;BME280;52002;49.760;6.512;2022-11-18T03:50:15;98259.88;;;20.12;54.48
65394;BME280;52002;49.760;6.512;2022-11-18T03:52:47;98265.30;;;20.12;54.49
65394;BME280;52002;49.760;6.512;2022-11-18T03:55:16;98271.02;;;20.13;54.49
65394;BME280;52002;49.760;6.512;2022-11-18T04:00:27;98273.43;;;20.12;54.49
65394;BME280;52002;49.760;6.512;2022-11-18T04:02:55;98280.49;;;20.13;54.47
65394;BME280;52002;49.760;6.512;2022-11-18T04:05:21;98287.27;;;20.13;54.49
65394;BME280;52002;49.760;6.512;2022-11-18T04:07:58;98289.98;;;20.13;54.48
65394;BME280;52002;49.760;6.512;2022-11-18T04:13:09;98299.45;;;20.13;54.50
65394;BME280;52002;49.760;6.512;2022-11-18T04:15:43;98292.39;;;20.12;54.52
65394;BME280;52002;49.760;6.512;2022-11-18T04:18:09;98295.10;;;20.12;54.52
65394;BME280;52002;49.760;6.512;2022-11-18T04:20:36;98301.87;;;20.12;54.53
65394;BME280;52002;49.760;6.512;2022-11-18T04:23:02;98304.29;;;20.11;54.54
65394;BME280;52002;49.760;6.512;2022-11-18T04:25:29;98304.29;;;20.11;54.52
65394;BME280;52002;49.760;6.512;2022-11-18T04:27:55;98313.48;;;20.10;54.57
65394;BME280;52002;49.760;6.512;2022-11-18T04:30:21;98315.34;;;20.10;54.59
65394;BME280;52002;49.760;6.512;2022-11-18T04:32:47;98314.53;;;20.09;54.57
65394;BME280;52002;49.760;6.512;2022-11-18T04:35:13;98320.55;;;20.11;54.56
65394;BME280;52002;49.760;6.512;2022-11-18T04:37:40;98323.25;;;20.11;54.55
65394;BME280;52002;49.760;6.512;2022-11-18T04:40:07;98322.19;;;20.12;54.55
65394;BME280;52002;49.760;6.512;2022-11-18T04:42:34;98326.55;;;20.13;54.55
65394;BME280;52002;49.760;6.512;2022-11-18T04:45:00;98327.35;;;20.14;54.53
65394;BME280;52002;49.760;6.512;2022-11-18T04:47:27;98332.26;;;20.14;54.51
65394;BME280;52002;49.760;6.512;2022-11-18T04:49:53;98327.10;;;20.15;54.51
65394;BME280;52002;49.760;6.512;2022-11-18T04:52:19;98324.39;;;20.15;54.50
65394;BME280;52002;49.760;6.512;2022-11-18T04:54:45;98330.10;;;20.16;54.51
65394;BME280;52002;49.760;6.512;2022-11-18T04:57:11;98327.39;;;20.16;54.49
65394;BME280;52002;49.760;6.512;2022-11-18T04:59:38;98334.17;;;20.16;54.49
65394;BME280;52002;49.760;6.512;2022-11-18T05:02:04;98340.94;;;20.16;54.51
65394;BME280;52002;49.760;6.512;2022-11-18T05:04:33;98337.94;;;20.15;54.52
65394;BME280;52002;49.760;6.512;2022-11-18T05:06:59;98340.38;;;20.14;54.53
65394;BME280;52002;49.760;6.512;2022-11-18T05:09:27;98342.00;;;20.15;54.54
65394;BME280;52002;49.760;6.512;2022-11-18T05:11:53;98340.09;;;20.13;54.56
65394;BME280;52002;49.760;6.512;2022-11-18T05:14:38;98346.02;;;20.13;54.57
65394;BME280;52002;49.760;6.512;2022-11-18T05:17:07;98345.22;;;20.12;54.60
65394;BME280;52002;49.760;6.512;2022-11-18T05:19:36;98348.98;;;20.11;54.62
65394;BME280;52002;49.760;6.512;2022-11-18T05:22:04;98354.41;;;20.11;54.61
65394;BME280;52002;49.760;6.512;2022-11-18T05:24:30;98350.52;;;20.07;54.64
65394;BME280;52002;49.760;6.512;2022-11-18T05:26:56;98358.17;;;20.10;54.65
65394;BME280;52002;49.760;6.512;2022-11-18T05:29:23;98360.59;;;20.09;54.66
65394;BME280;52002;49.760;6.512;2022-11-18T05:31:49;98361.47;;;20.12;54.62
65394;BME280;52002;49.760;6.512;2022-11-18T05:34:16;98361.47;;;20.12;54.62
65394;BME280;52002;49.760;6.512;2022-11-18T05:36:43;98364.47;;;20.13;54.62
65394;BME280;52002;49.760;6.512;2022-11-18T05:39:09;98369.89;;;20.13;54.60
65394;BME280;52002;49.760;6.512;2022-11-18T05:41:35;98375.87;;;20.15;54.62
65394;BME280;52002;49.760;6.512;2022-11-18T05:44:19;98372.34;;;20.15;54.58
65394;BME280;52002;49.760;6.512;2022-11-18T05:46:45;98381.28;;;20.15;54.58
65394;BME280;52002;49.760;6.512;2022-11-18T05:49:11;98382.64;;;20.15;54.58
65394;BME280;52002;49.760;6.512;2022-11-18T05:51:37;98382.64;;;20.15;54.58
65394;BME280;52002;49.760;6.512;2022-11-18T05:54:06;98382.38;;;20.14;54.59
65394;BME280;52002;49.760;6.512;2022-11-18T05:56:38;98389.41;;;20.15;54.60
65394;BME280;52002;49.760;6.512;2022-11-18T05:59:06;98391.31;;;20.15;54.59
65394;BME280;52002;49.760;6.512;2022-11-18T06:04:36;98404.31;;;20.15;54.59
65394;BME280;52002;49.760;6.512;2022-11-18T06:07:10;98404.86;;;20.15;54.59
65394;BME280;52002;49.760;6.512;2022-11-18T06:09:44;98411.05;;;20.13;54.62
65394;BME280;52002;49.760;6.512;2022-11-18T06:12:13;98420.01;;;20.13;54.64
65394;BME280;52002;49.760;6.512;2022-11-18T06:14:45;98422.42;;;20.12;54.64
65394;BME280;52002;49.760;6.512;2022-11-18T06:17:18;98424.84;;;20.11;54.67
65394;BME280;52002;49.760;6.512;2022-11-18T06:19:46;98430.25;;;20.11;54.65
65394;BME280;52002;49.760;6.512;2022-11-18T06:22:13;98433.55;;;20.13;54.63
65394;BME280;52002;49.760;6.512;2022-11-18T06:24:39;98439.78;;;20.14;54.64
65394;BME280;52002;49.760;6.512;2022-11-18T06:27:07;98439.27;;;20.14;54.63
65394;BME280;52002;49.760;6.512;2022-11-18T06:29:34;98445.79;;;20.16;54.60
65394;BME280;52002;49.760;6.512;2022-11-18T06:32:00;98454.73;;;20.16;54.58
65394;BME280;52002;49.760;6.512;2022-11-18T06:34:26;98459.05;;;20.15;54.60
65394;BME280;52002;49.760;6.512;2022-11-18T06:36:51;98457.14;;;20.15;54.58
65394;BME280;52002;49.760;6.512;2022-11-18T06:39:17;98458.49;;;20.15;54.59
65394;BME280;52002;49.760;6.512;2022-11-18T06:41:43;98462.86;;;20.16;54.59
65394;BME280;52002;49.760;6.512;2022-11-18T06:44:13;98465.27;;;20.15;54.59
65394;BME280;52002;49.760;6.512;2022-11-18T06:46:39;98475.59;;;20.16;54.60
65394;BME280;52002;49.760;6.512;2022-11-18T06:49:22;98477.45;;;20.15;54.61
65394;BME280;52002;49.760;6.512;2022-11-18T06:51:49;98481.26;;;20.14;54.61
65394;BME280;52002;49.760;6.512;2022-11-18T06:56:45;98478.34;;;20.19;54.60
65394;BME280;52002;49.760;6.512;2022-11-18T06:59:11;98482.31;;;20.13;54.63
65394;BME280;52002;49.760;6.512;2022-11-18T07:01:39;98486.89;;;20.13;54.65
65394;BME280;52002;49.760;6.512;2022-11-18T07:04:06;98486.09;;;20.12;54.64
65394;BME280;52002;49.760;6.512;2022-11-18T07:06:33;98489.31;;;20.12;54.67
65394;BME280;52002;49.760;6.512;2022-11-18T07:09:02;98490.66;;;20.12;54.67
65394;BME280;52002;49.760;6.512;2022-11-18T07:11:31;98496.08;;;20.12;54.67
65394;BME280;52002;49.760;6.512;2022-11-18T07:13:57;98509.41;;;20.13;54.66
65394;BME280;52002;49.760;6.512;2022-11-18T07:16:25;98512.63;;;20.13;54.67
65394;BME280;52002;49.760;6.512;2022-11-18T07:18:52;98519.41;;;20.13;54.67
65394;BME280;52002;49.760;6.512;2022-11-18T07:21:21;98520.25;;;20.13;54.63
65394;BME280;52002;49.760;6.512;2022-11-18T07:23:51;98523.52;;;20.15;54.61
65394;BME280;52002;49.760;6.512;2022-11-18T07:26:18;98529.23;;;20.16;54.58
65394;BME280;52002;49.760;6.512;2022-11-18T07:28:44;98534.95;;;20.17;54.47
65394;BME280;52002;49.760;6.512;2022-11-18T07:31:12;98536.00;;;20.16;54.53
65394;BME280;52002;49.760;6.512;2022-11-18T07:33:41;98536.00;;;20.16;54.55
65394;BME280;52002;49.760;6.512;2022-11-18T07:36:11;98539.77;;;20.15;54.53
65394;BME280;52002;49.760;6.512;2022-11-18T07:38:40;98542.48;;;20.15;54.52
65394;BME280;52002;49.760;6.512;2022-11-18T07:43:40;98550.52;;;20.10;53.63
65394;BME280;52002;49.760;6.512;2022-11-18T07:46:25;98560.19;;;19.64;52.70
65394;BME280;52002;49.760;6.512;2022-11-18T07:48:54;98561.67;;;19.08;52.93
65394;BME280;52002;49.760;6.512;2022-11-18T07:51:25;98569.38;;;18.04;53.01
65394;BME280;52002;49.760;6.512;2022-11-18T07:53:52;98572.89;;;17.25;53.48
65394;BME280;52002;49.760;6.512;2022-11-18T07:56:19;98576.95;;;17.18;53.74
65394;BME280;52002;49.760;6.512;2022-11-18T07:58:46;98578.55;;;17.49;53.58
65394;BME280;52002;49.760;6.512;2022-11-18T08:01:15;98583.34;;;17.79;53.53
65394;BME280;52002;49.760;6.512;2022-11-18T08:03:42;98585.34;;;18.06;53.64
65394;BME280;52002;49.760;6.512;2022-11-18T08:06:11;98594.41;;;18.28;53.77
65394;BME280;52002;49.760;6.512;2022-11-18T08:08:38;98591.52;;;18.48;53.76
65394;BME280;52002;49.760;6.512;2022-11-18T08:11:07;98592.89;;;18.66;53.77
65394;BME280;52002;49.760;6.512;2022-11-18T08:13:35;98597.09;;;18.81;53.72
65394;BME280;52002;49.760;6.512;2022-11-18T08:16:02;98600.81;;;18.96;53.64
65394;BME280;52002;49.760;6.512;2022-11-18T08:18:29;98600.29;;;19.06;53.61
65394;BME280;52002;49.760;6.512;2022-11-18T08:21:02;98600.56;;;19.16;53.50
65394;BME280;52002;49.760;6.512;2022-11-18T08:23:28;98600.88;;;19.26;53.47
65394;BME280;52002;49.760;6.512;2022-11-18T08:26:03;98602.65;;;19.33;53.40
65394;BME280;52002;49.760;6.512;2022-11-18T08:28:31;98612.56;;;19.39;53.34
65394;BME280;52002;49.760;6.512;2022-11-18T08:30:57;98608.66;;;19.44;53.31
65394;BME280;52002;49.760;6.512;2022-11-18T08:33:24;98617.50;;;19.51;53.09
65394;BME280;52002;49.760;6.512;2022-11-18T08:35:50;98621.70;;;19.56;53.13
65394;BME280;52002;49.760;6.512;2022-11-18T08:38:17;98620.50;;;19.62;53.06
65394;BME280;52002;49.760;6.512;2022-11-18T08:40:45;98619.05;;;19.68;52.96
65394;BME280;52002;49.760;6.512;2022-11-18T08:43:12;98628.48;;;19.78;52.84
65394;BME280;52002;49.760;6.512;2022-11-18T08:45:39;98627.02;;;19.84;52.76
65394;BME280;52002;49.760;6.512;2022-11-18T08:48:05;98626.72;;;19.83;52.52
65394;BME280;52002;49.760;6.512;2022-11-18T08:50:31;98627.78;;;19.82;52.71
65394;BME280;52002;49.760;6.512;2022-11-18T08:52:57;98634.63;;;19.85;52.73
65394;BME280;52002;49.760;6.512;2022-11-18T08:55:23;98634.09;;;19.85;52.71
65394;BME280;52002;49.760;6.512;2022-11-18T08:57:49;98635.98;;;19.85;52.72
65394;BME280;52002;49.760;6.512;2022-11-18T09:00:15;98636.80;;;19.85;52.72
65394;BME280;52002;49.760;6.512;2022-11-18T09:02:42;98638.16;;;19.85;52.73
65394;BME280;52002;49.760;6.512;2022-11-18T09:05:08;98638.16;;;19.85;52.73
65394;BME280;52002;49.760;6.512;2022-11-18T09:07:34;98635.45;;;19.85;52.76
65394;BME280;52002;49.760;6.512;2022-11-18T09:09:59;98642.03;;;19.87;52.77
65394;BME280;52002;49.760;6.512;2022-11-18T09:12:25;98646.91;;;19.88;52.78
65394;BME280;52002;49.760;6.512;2022-11-18T09:14:51;98643.14;;;19.89;52.80
65394;BME280;52002;49.760;6.512;2022-11-18T09:17:17;98640.44;;;19.89;52.81
65394;BME280;52002;49.760;6.512;2022-11-18T09:19:43;98640.73;;;19.90;52.84
65394;BME280;52002;49.760;6.512;2022-11-18T09:22:09;98642.39;;;19.91;52.96
65394;BME280;52002;49.760;6.512;2022-11-18T09:24:35;98647.27;;;19.91;53.00
65394;BME280;52002;49.760;6.512;2022-11-18T09:27:02;98645.39;;;19.92;53.02
65394;BME280;52002;49.760;6.512;2022-11-18T09:29:30;98645.39;;;19.92;53.11
65394;BME280;52002;49.760;6.512;2022-11-18T09:31:56;98650.05;;;19.94;53.13
65394;BME280;52002;49.760;6.512;2022-11-18T09:34:24;98656.53;;;19.93;53.15
65394;BME280;52002;49.760;6.512;2022-11-18T09:36:50;98663.30;;;19.93;53.14
65394;BME280;52002;49.760;6.512;2022-11-18T09:39:18;98666.01;;;19.93;53.17
65394;BME280;52002;49.760;6.512;2022-11-18T09:41:47;98668.72;;;19.93;53.15
65394;BME280;52002;49.760;6.512;2022-11-18T09:44:48;98667.36;;;19.93;53.19
65394;BME280;52002;49.760;6.512;2022-11-18T09:47:27;98676.30;;;19.93;53.23
65394;BME280;52002;49.760;6.512;2022-11-18T09:50:01;98676.30;;;19.93;53.29
65394;BME280;52002;49.760;6.512;2022-11-18T09:55:15;98681.42;;;19.92;53.38
65394;BME280;52002;49.760;6.512;2022-11-18T09:57:50;98680.30;;;19.91;53.43
65394;BME280;52002;49.760;6.512;2022-11-18T10:00:22;98688.73;;;19.92;53.49
65394;BME280;52002;49.760;6.512;2022-11-18T10:03:05;98687.67;;;19.93;53.53
65394;BME280;52002;49.760;6.512;2022-11-18T10:05:49;98687.67;;;19.93;53.57
65394;BME280;52002;49.760;6.512;2022-11-18T10:08:43;98687.98;;;19.94;53.51
65394;BME280;52002;49.760;6.512;2022-11-18T10:17:07;98694.00;;;19.77;53.29
65394;BME280;52002;49.760;6.512;2022-11-18T10:19:38;98699.12;;;19.76;53.36
65394;BME280;52002;49.760;6.512;2022-11-18T10:22:21;98709.65;;;19.75;53.39
65394;BME280;52002;49.760;6.512;2022-11-18T10:24:59;98704.98;;;19.73;53.39
65394;BME280;52002;49.760;6.512;2022-11-18T10:27:37;98711.75;;;19.73;53.37
65394;BME280;52002;49.760;6.512;2022-11-18T10:32:57;98719.52;;;19.69;53.20
65394;BME280;52002;49.760;6.512;2022-11-18T10:35:34;98724.09;;;19.69;53.18
65394;BME280;52002;49.760;6.512;2022-11-18T10:38:15;98731.91;;;19.68;53.15
65394;BME280;52002;49.760;6.512;2022-11-18T10:40:57;98730.55;;;19.68;53.13
65394;BME280;52002;49.760;6.512;2022-11-18T10:46:25;98739.42;;;19.66;53.06
65394;BME280;52002;49.760;6.512;2022-11-18T10:51:42;98740.21;;;19.64;53.03
65394;BME280;52002;49.760;6.512;2022-11-18T10:54:21;98742.02;;;19.61;53.06
65394;BME280;52002;49.760;6.512;2022-11-18T10:59:48;98749.83;;;19.60;53.14
65394;BME280;52002;49.760;6.512;2022-11-18T11:02:29;98745.98;;;19.58;53.06
65394;BME280;52002;49.760;6.512;2022-11-18T11:05:12;98743.27;;;19.58;53.15
65394;BME280;52002;49.760;6.512;2022-11-18T11:08:32;98738.70;;;19.59;53.13
65394;BME280;52002;49.760;6.512;2022-11-18T11:10:31;98738.91;;;19.57;53.01
65394;BME280;52002;49.760;6.512;2022-11-18T11:13:03;98742.16;;;19.56;53.04
65394;BME280;52002;49.760;6.512;2022-11-18T11:15:42;98740.80;;;19.56;53.09
65394;BME280;52002;49.760;6.512;2022-11-18T11:18:19;98741.86;;;19.55;53.06
65394;BME280;52002;49.760;6.512;2022-11-18T11:21:12;98733.73;;;19.55;53.07
65394;BME280;52002;49.760;6.512;2022-11-18T11:23:43;98734.93;;;19.50;53.09
65394;BME280;52002;49.760;6.512;2022-11-18T11:29:32;98745.01;;;19.52;53.15
65394;BME280;52002;49.760;6.512;2022-11-18T11:37:54;98751.92;;;19.48;52.98
65394;BME280;52002;49.760;6.512;2022-11-18T11:49:37;98761.39;;;19.48;53.14
65394;BME280;52002;49.760;6.512;2022-11-18T11:51:57;98768.94;;;19.46;53.00
65394;BME280;52002;49.760;6.512;2022-11-18T12:00:04;98765.92;;;19.45;53.17
65394;BME280;52002;49.760;6.512;2022-11-18T12:02:48;98766.44;;;19.45;53.11
65394;BME280;52002;49.760;6.512;2022-11-18T12:05:34;98759.91;;;19.43;53.16
65394;BME280;52002;49.760;6.512;2022-11-18T12:08:24;98762.91;;;19.44;53.17
65394;BME280;52002;49.760;6.512;2022-11-18T12:16:46;98769.08;;;19.42;53.17
65394;BME280;52002;49.760;6.512;2022-11-18T12:19:26;98771.48;;;19.41;53.38
65394;BME280;52002;49.760;6.512;2022-11-18T12:21:54;98773.14;;;19.42;53.33
65394;BME280;52002;49.760;6.512;2022-11-18T12:24:32;98778.31;;;19.44;53.27
65394;BME280;52002;49.760;6.512;2022-11-18T12:26:57;98775.09;;;19.44;53.29
65394;BME280;52002;49.760;6.512;2022-11-18T12:32:31;98772.09;;;19.43;53.40
65394;BME280;52002;49.760;6.512;2022-11-18T12:37:58;98768.47;;;19.40;53.33
65394;BME280;52002;49.760;6.512;2022-11-18T12:40:43;98773.34;;;19.40;53.35
65394;BME280;52002;49.760;6.512;2022-11-18T12:52:05;98771.48;;;19.41;53.34
65394;BME280;52002;49.760;6.512;2022-11-18T12:54:35;98777.70;;;19.41;53.37
65394;BME280;52002;49.760;6.512;2022-11-18T12:59:46;98784.27;;;19.43;53.49
65394;BME280;52002;49.760;6.512;2022-11-18T13:02:24;98784.77;;;19.43;53.53
65394;BME280;52002;49.760;6.512;2022-11-18T13:05:04;98780.51;;;19.44;53.59
65394;BME280;52002;49.760;6.512;2022-11-18T13:07:33;98780.72;;;19.43;53.54
65394;BME280;52002;49.760;6.512;2022-11-18T13:10:25;98792.59;;;19.41;53.40
65394;BME280;52002;49.760;6.512;2022-11-18T13:12:54;98789.67;;;19.43;53.42
65394;BME280;52002;49.760;6.512;2022-11-18T13:15:21;98792.99;;;19.45;53.38
65394;BME280;52002;49.760;6.512;2022-11-18T13:20:58;98794.34;;;19.45;53.53
65394;BME280;52002;49.760;6.512;2022-11-18T13:23:31;98790.28;;;19.45;53.63
65394;BME280;52002;49.760;6.512;2022-11-18T13:26:31;98789.67;;;19.43;53.62
65394;BME280;52002;49.760;6.512;2022-11-18T13:34:50;98798.00;;;19.41;53.72
65394;BME280;52002;49.760;6.512;2022-11-18T13:37:20;98800.95;;;19.40;53.67
65394;BME280;52002;49.760;6.512;2022-11-18T13:39:48;98800.64;;;19.39;53.63
65394;BME280;52002;49.760;6.512;2022-11-18T13:42:39;98796.58;;;19.39;53.67
65394;BME280;52002;49.760;6.512;2022-11-18T13:44:55;98796.58;;;19.39;53.67
65394;BME280;52002;49.760;6.512;2022-11-18T13:55:19;98799.89;;;19.41;53.77
65394;BME280;52002;49.760;6.512;2022-11-18T13:57:49;98798.55;;;19.41;53.81
65394;BME280;52002;49.760;6.512;2022-11-18T14:00:21;98797.94;;;19.39;53.85
65394;BME280;52002;49.760;6.512;2022-11-18T14:02:55;98801.99;;;19.39;53.86
65394;BME280;52002;49.760;6.512;2022-11-18T14:05:22;98806.29;;;19.37;53.92
65394;BME280;52002;49.760;6.512;2022-11-18T14:07:58;98807.84;;;19.36;53.89
65394;BME280;52002;49.760;6.512;2022-11-18T14:15:48;98799.42;;;19.35;53.89
65394;BME280;52002;49.760;6.512;2022-11-18T14:18:22;98801.08;;;19.36;53.97
65394;BME280;52002;49.760;6.512;2022-11-18T14:20:59;98803.48;;;19.35;53.99
65394;BME280;52002;49.760;6.512;2022-11-18T14:23:32;98799.97;;;19.34;53.93
65394;BME280;52002;49.760;6.512;2022-11-18T14:26:02;98808.59;;;19.34;53.93
65394;BME280;52002;49.760;6.512;2022-11-18T14:28:31;98801.83;;;19.34;53.99
65394;BME280;52002;49.760;6.512;2022-11-18T14:36:44;98802.88;;;19.33;54.11
65394;BME280;52002;49.760;6.512;2022-11-18T14:39:22;98807.69;;;19.31;53.92
65394;BME280;52002;49.760;6.512;2022-11-18T14:41:53;98808.29;;;19.33;53.96
65394;BME280;52002;49.760;6.512;2022-11-18T14:44:21;98810.39;;;19.31;54.00
65394;BME280;52002;49.760;6.512;2022-11-18T14:46:50;98812.05;;;19.32;54.07
65394;BME280;52002;49.760;6.512;2022-11-18T14:49:23;98808.29;;;19.33;54.14
65394;BME280;52002;49.760;6.512;2022-11-18T14:51:51;98815.80;;;19.31;54.16
65394;BME280;52002;49.760;6.512;2022-11-18T14:54:21;98817.16;;;19.31;54.16
65394;BME280;52002;49.760;6.512;2022-11-18T14:56:49;98822.42;;;19.35;54.21
65394;BME280;52002;49.760;6.512;2022-11-18T14:59:17;98820.77;;;19.34;54.23
65394;BME280;52002;49.760;6.512;2022-11-18T15:01:45;98818.81;;;19.32;54.32
65394;BME280;52002;49.760;6.512;2022-11-18T15:04:13;98823.48;;;19.34;54.35
65394;BME280;52002;49.760;6.512;2022-11-18T15:06:42;98826.34;;;19.30;54.32
65394;BME280;52002;49.760;6.512;2022-11-18T15:09:10;98820.63;;;19.29;54.45
65394;BME280;52002;49.760;6.512;2022-11-18T15:11:36;98830.41;;;19.30;54.46
65394;BME280;52002;49.760;6.512;2022-11-18T15:14:02;98833.39;;;19.31;54.45
65394;BME280;52002;49.760;6.512;2022-11-18T15:16:29;98834.47;;;19.30;54.48
65394;BME280;52002;49.760;6.512;2022-11-18T15:18:59;98838.80;;;19.31;54.52
65394;BME280;52002;49.760;6.512;2022-11-18T15:21:26;98839.88;;;19.30;54.53
65394;BME280;52002;49.760;6.512;2022-11-18T15:23:53;98840.92;;;19.29;54.53
65394;BME280;52002;49.760;6.512;2022-11-18T15:26:22;98844.68;;;19.28;54.50